sensor_id;sensor_type;location;lat;lon;timestamp;temperature;humidity
29539;DHT22;16482;51.046;4.498;2022-12-18T00:01:32;22.50;22.70
29539;DHT22;16482;51.046;4.498;2022-12-18T00:04:00;22.50;22.60
29539;DHT22;16482;51.046;4.498;2022-12-18T00:06:30;22.40;22.50
29539;DHT22;16482;51.046;4.498;2022-12-18T00:08:58;22.40;22.50
29539;DHT22;16482;51.046;4.498;2022-12-18T00:11:29;22.40;22.40
29539;DHT22;16482;51.046;4.498;2022-12-18T00:13:57;22.40;22.30
29539;DHT22;16482;51.046;4.498;2022-12-18T00:16:26;22.40;22.30
29539;DHT22;16482;51.046;4.498;2022-12-18T00:18:56;22.30;22.10
29539;DHT22;16482;51.046;4.498;2022-12-18T00:21:23;22.30;22.10
29539;DHT22;16482;51.046;4.498;2022-12-18T00:23:50;22.30;22.10
29539;DHT22;16482;51.046;4.498;2022-12-18T00:26:21;22.30;22.10
29539;DHT22;16482;51.046;4.498;2022-12-18T00:28:49;22.30;22.00
29539;DHT22;16482;51.046;4.498;2022-12-18T00:31:18;22.30;22.20
29539;DHT22;16482;51.046;4.498;2022-12-18T00:33:44;22.30;22.10
29539;DHT22;16482;51.046;4.498;2022-12-18T00:36:16;22.30;22.10
29539;DHT22;16482;51.046;4.498;2022-12-18T00:38:43;22.30;22.20
29539;DHT22;16482;51.046;4.498;2022-12-18T00:41:11;22.30;22.20
29539;DHT22;16482;51.046;4.498;2022-12-18T00:43:57;22.30;22.30
29539;DHT22;16482;51.046;4.498;2022-12-18T00:46:23;22.20;22.50
29539;DHT22;16482;51.046;4.498;2022-12-18T00:48:49;22.30;22.40
29539;DHT22;16482;51.046;4.498;2022-12-18T00:51:15;22.30;22.30
29539;DHT22;16482;51.046;4.498;2022-12-18T00:53:41;22.20;22.20
29539;DHT22;16482;51.046;4.498;2022-12-18T00:56:07;22.20;22.20
29539;DHT22;16482;51.046;4.498;2022-12-18T00:58:33;22.20;22.20
29539;DHT22;16482;51.046;4.498;2022-12-18T01:00:59;22.20;22.20
29539;DHT22;16482;51.046;4.498;2022-12-18T01:03:28;22.20;22.30
29539;DHT22;16482;51.046;4.498;2022-12-18T01:05:54;22.20;22.30
29539;DHT22;16482;51.046;4.498;2022-12-18T01:08:23;22.20;22.30
29539;DHT22;16482;51.046;4.498;2022-12-18T01:10:53;22.20;22.40
29539;DHT22;16482;51.046;4.498;2022-12-18T01:13:22;22.20;22.80
29539;DHT22;16482;51.046;4.498;2022-12-18T01:15:49;22.10;22.30
29539;DHT22;16482;51.046;4.498;2022-12-18T01:18:24;22.10;22.40
29539;DHT22;16482;51.046;4.498;2022-12-18T01:20:50;22.10;22.40
29539;DHT22;16482;51.046;4.498;2022-12-18T01:23:19;22.10;22.40
29539;DHT22;16482;51.046;4.498;2022-12-18T01:25:45;22.10;22.40
29539;DHT22;16482;51.046;4.498;2022-12-18T01:28:11;22.10;22.40
29539;DHT22;16482;51.046;4.498;2022-12-18T01:30:37;22.10;22.40
29539;DHT22;16482;51.046;4.498;2022-12-18T01:33:05;22.10;22.30
29539;DHT22;16482;51.046;4.498;2022-12-18T01:35:31;22.00;22.30
29539;DHT22;16482;51.046;4.498;2022-12-18T01:37:57;22.00;22.30
29539;DHT22;16482;51.046;4.498;2022-12-18T01:40:24;22.00;22.40
29539;DHT22;16482;51.046;4.498;2022-12-18T01:42:53;22.00;22.30
29539;DHT22;16482;51.046;4.498;2022-12-18T01:45:26;22.00;22.30
29539;DHT22;16482;51.046;4.498;2022-12-18T01:48:07;22.00;22.30
29539;DHT22;16482;51.046;4.498;2022-12-18T01:50:37;22.00;22.50
29539;DHT22;16482;51.046;4.498;2022-12-18T01:53:14;22.00;22.60
29539;DHT22;16482;51.046;4.498;2022-12-18T01:55:53;22.00;22.70
29539;DHT22;16482;51.046;4.498;2022-12-18T01:58:27;22.00;22.80
29539;DHT22;16482;51.046;4.498;2022-12-18T02:00:56;21.90;22.90
29539;DHT22;16482;51.046;4.498;2022-12-18T02:03:22;21.90;23.00
29539;DHT22;16482;51.046;4.498;2022-12-18T02:06:11;21.90;22.90
29539;DHT22;16482;51.046;4.498;2022-12-18T02:08:48;21.90;22.80
29539;DHT22;16482;51.046;4.498;2022-12-18T02:17:11;21.80;22.70
29539;DHT22;16482;51.046;4.498;2022-12-18T02:27:59;21.80;21.90
29539;DHT22;16482;51.046;4.498;2022-12-18T02:30:27;21.80;21.80
29539;DHT22;16482;51.046;4.498;2022-12-18T02:32:57;21.80;21.80
29539;DHT22;16482;51.046;4.498;2022-12-18T02:35:27;21.80;21.60
29539;DHT22;16482;51.046;4.498;2022-12-18T02:37:54;21.70;21.60
29539;DHT22;16482;51.046;4.498;2022-12-18T02:40:22;21.70;21.50
29539;DHT22;16482;51.046;4.498;2022-12-18T02:42:49;21.80;21.50
29539;DHT22;16482;51.046;4.498;2022-12-18T02:45:16;21.70;21.70
29539;DHT22;16482;51.046;4.498;2022-12-18T02:47:44;21.70;21.70
29539;DHT22;16482;51.046;4.498;2022-12-18T02:53:18;21.70;21.70
29539;DHT22;16482;51.046;4.498;2022-12-18T02:55:56;21.70;21.70
29539;DHT22;16482;51.046;4.498;2022-12-18T03:01:48;21.70;21.70
29539;DHT22;16482;51.046;4.498;2022-12-18T03:07:05;21.70;21.80
29539;DHT22;16482;51.046;4.498;2022-12-18T03:09:38;21.60;21.90
29539;DHT22;16482;51.046;4.498;2022-12-18T03:12:18;21.60;21.80
29539;DHT22;16482;51.046;4.498;2022-12-18T03:15:09;21.60;21.90
29539;DHT22;16482;51.046;4.498;2022-12-18T03:17:37;21.60;21.90
29539;DHT22;16482;51.046;4.498;2022-12-18T03:20:14;21.60;21.90
29539;DHT22;16482;51.046;4.498;2022-12-18T03:22:43;21.60;21.90
29539;DHT22;16482;51.046;4.498;2022-12-18T03:25:13;21.60;21.80
29539;DHT22;16482;51.046;4.498;2022-12-18T03:27:44;21.60;21.90
29539;DHT22;16482;51.046;4.498;2022-12-18T03:30:13;21.60;21.90
29539;DHT22;16482;51.046;4.498;2022-12-18T03:32:46;21.60;21.90
29539;DHT22;16482;51.046;4.498;2022-12-18T03:35:18;21.60;21.90
29539;DHT22;16482;51.046;4.498;2022-12-18T03:37:46;21.50;21.90
29539;DHT22;16482;51.046;4.498;2022-12-18T03:40:12;21.50;22.00
29539;DHT22;16482;51.046;4.498;2022-12-18T03:50:27;21.50;22.00
29539;DHT22;16482;51.046;4.498;2022-12-18T03:55:27;21.50;22.00
29539;DHT22;16482;51.046;4.498;2022-12-18T03:57:55;21.50;22.00
29539;DHT22;16482;51.046;4.498;2022-12-18T04:00:22;21.40;21.90
29539;DHT22;16482;51.046;4.498;2022-12-18T04:02:52;21.50;22.00
29539;DHT22;16482;51.046;4.498;2022-12-18T04:05:19;21.50;21.90
29539;DHT22;16482;51.046;4.498;2022-12-18T04:07:47;21.40;21.90
29539;DHT22;16482;51.046;4.498;2022-12-18T04:10:15;21.40;22.40
29539;DHT22;16482;51.046;4.498;2022-12-18T04:12:44;21.40;21.90
29539;DHT22;16482;51.046;4.498;2022-12-18T04:15:10;21.40;22.00
29539;DHT22;16482;51.046;4.498;2022-12-18T04:17:37;21.40;22.00
29539;DHT22;16482;51.046;4.498;2022-12-18T04:20:04;21.40;22.10
29539;DHT22;16482;51.046;4.498;2022-12-18T04:22:33;21.40;22.30
29539;DHT22;16482;51.046;4.498;2022-12-18T04:24:59;21.40;22.40
29539;DHT22;16482;51.046;4.498;2022-12-18T04:27:31;21.40;22.50
29539;DHT22;16482;51.046;4.498;2022-12-18T04:29:57;21.40;22.60
29539;DHT22;16482;51.046;4.498;2022-12-18T04:32:37;21.40;22.60
29539;DHT22;16482;51.046;4.498;2022-12-18T04:35:03;21.40;22.50
29539;DHT22;16482;51.046;4.498;2022-12-18T04:37:32;21.40;22.50
29539;DHT22;16482;51.046;4.498;2022-12-18T04:40:04;21.30;22.50
29539;DHT22;16482;51.046;4.498;2022-12-18T04:42:33;21.30;22.40
29539;DHT22;16482;51.046;4.498;2022-12-18T04:44:59;21.30;22.40
29539;DHT22;16482;51.046;4.498;2022-12-18T04:47:25;21.30;22.30
29539;DHT22;16482;51.046;4.498;2022-12-18T04:49:51;21.30;22.30
29539;DHT22;16482;51.046;4.498;2022-12-18T04:52:17;21.30;22.10
29539;DHT22;16482;51.046;4.498;2022-12-18T04:54:43;21.30;22.00
29539;DHT22;16482;51.046;4.498;2022-12-18T04:57:09;21.30;21.70
29539;DHT22;16482;51.046;4.498;2022-12-18T04:59:35;21.30;21.80
29539;DHT22;16482;51.046;4.498;2022-12-18T05:02:01;21.30;21.70
29539;DHT22;16482;51.046;4.498;2022-12-18T05:04:27;21.30;21.60
29539;DHT22;16482;51.046;4.498;2022-12-18T05:06:53;21.30;21.50
29539;DHT22;16482;51.046;4.498;2022-12-18T05:09:19;21.30;21.40
29539;DHT22;16482;51.046;4.498;2022-12-18T05:11:48;21.30;21.30
29539;DHT22;16482;51.046;4.498;2022-12-18T05:14:23;21.30;21.30
29539;DHT22;16482;51.046;4.498;2022-12-18T05:16:49;21.30;21.30
29539;DHT22;16482;51.046;4.498;2022-12-18T05:19:15;21.30;21.30
29539;DHT22;16482;51.046;4.498;2022-12-18T05:21:41;21.30;21.20
29539;DHT22;16482;51.046;4.498;2022-12-18T05:24:13;21.20;21.20
29539;DHT22;16482;51.046;4.498;2022-12-18T05:26:42;21.20;21.20
29539;DHT22;16482;51.046;4.498;2022-12-18T05:29:08;21.20;21.40
29539;DHT22;16482;51.046;4.498;2022-12-18T05:31:38;21.20;21.40
29539;DHT22;16482;51.046;4.498;2022-12-18T05:34:07;21.10;21.20
29539;DHT22;16482;51.046;4.498;2022-12-18T05:36:41;21.10;21.30
29539;DHT22;16482;51.046;4.498;2022-12-18T05:39:07;21.20;21.60
29539;DHT22;16482;51.046;4.498;2022-12-18T05:41:43;21.20;21.80
29539;DHT22;16482;51.046;4.498;2022-12-18T05:44:12;21.30;21.90
29539;DHT22;16482;51.046;4.498;2022-12-18T05:46:38;21.30;22.10
29539;DHT22;16482;51.046;4.498;2022-12-18T05:49:12;21.30;22.70
29539;DHT22;16482;51.046;4.498;2022-12-18T05:51:43;21.40;22.40
29539;DHT22;16482;51.046;4.498;2022-12-18T05:54:14;21.40;22.30
29539;DHT22;16482;51.046;4.498;2022-12-18T05:56:42;21.50;22.40
29539;DHT22;16482;51.046;4.498;2022-12-18T05:59:08;21.60;22.40
29539;DHT22;16482;51.046;4.498;2022-12-18T06:01:38;21.60;22.40
29539;DHT22;16482;51.046;4.498;2022-12-18T06:04:04;21.70;22.40
29539;DHT22;16482;51.046;4.498;2022-12-18T06:06:30;21.70;22.30
29539;DHT22;16482;51.046;4.498;2022-12-18T06:08:56;21.80;22.30
29539;DHT22;16482;51.046;4.498;2022-12-18T06:11:26;21.80;22.20
29539;DHT22;16482;51.046;4.498;2022-12-18T06:13:54;21.90;22.20
29539;DHT22;16482;51.046;4.498;2022-12-18T06:16:23;22.00;22.10
29539;DHT22;16482;51.046;4.498;2022-12-18T06:18:49;22.00;22.10
29539;DHT22;16482;51.046;4.498;2022-12-18T06:21:15;22.10;22.10
29539;DHT22;16482;51.046;4.498;2022-12-18T06:23:41;22.10;22.10
29539;DHT22;16482;51.046;4.498;2022-12-18T06:26:10;22.20;22.10
29539;DHT22;16482;51.046;4.498;2022-12-18T06:28:36;22.20;22.00
29539;DHT22;16482;51.046;4.498;2022-12-18T06:31:04;22.20;22.00
29539;DHT22;16482;51.046;4.498;2022-12-18T06:33:30;22.30;22.00
29539;DHT22;16482;51.046;4.498;2022-12-18T06:36:06;22.30;22.00
29539;DHT22;16482;51.046;4.498;2022-12-18T06:38:33;22.40;22.00
29539;DHT22;16482;51.046;4.498;2022-12-18T06:40:59;22.40;22.10
29539;DHT22;16482;51.046;4.498;2022-12-18T06:43:25;22.40;22.00
29539;DHT22;16482;51.046;4.498;2022-12-18T06:45:57;22.40;22.00
29539;DHT22;16482;51.046;4.498;2022-12-18T06:48:26;22.60;22.00
29539;DHT22;16482;51.046;4.498;2022-12-18T06:50:57;22.60;22.00
29539;DHT22;16482;51.046;4.498;2022-12-18T06:53:23;22.60;22.00
29539;DHT22;16482;51.046;4.498;2022-12-18T06:55:52;22.60;21.90
29539;DHT22;16482;51.046;4.498;2022-12-18T06:58:18;22.60;21.90
29539;DHT22;16482;51.046;4.498;2022-12-18T07:00:53;22.70;22.00
29539;DHT22;16482;51.046;4.498;2022-12-18T07:03:19;22.70;22.00
29539;DHT22;16482;51.046;4.498;2022-12-18T07:05:48;22.70;21.90
29539;DHT22;16482;51.046;4.498;2022-12-18T07:08:23;22.70;22.00
29539;DHT22;16482;51.046;4.498;2022-12-18T07:10:54;22.70;22.00
29539;DHT22;16482;51.046;4.498;2022-12-18T07:13:20;22.70;22.00
29539;DHT22;16482;51.046;4.498;2022-12-18T07:16:02;22.80;22.00
29539;DHT22;16482;51.046;4.498;2022-12-18T07:18:28;22.70;22.00
29539;DHT22;16482;51.046;4.498;2022-12-18T07:20:54;22.80;22.00
29539;DHT22;16482;51.046;4.498;2022-12-18T07:23:23;22.80;22.00
29539;DHT22;16482;51.046;4.498;2022-12-18T07:25:49;22.70;22.00
29539;DHT22;16482;51.046;4.498;2022-12-18T07:28:15;22.80;22.00
29539;DHT22;16482;51.046;4.498;2022-12-18T07:30:41;22.80;22.00
29539;DHT22;16482;51.046;4.498;2022-12-18T07:33:07;22.80;22.00
29539;DHT22;16482;51.046;4.498;2022-12-18T07:35:33;22.80;22.10
29539;DHT22;16482;51.046;4.498;2022-12-18T07:38:01;22.80;22.10
29539;DHT22;16482;51.046;4.498;2022-12-18T07:40:27;22.90;22.10
29539;DHT22;16482;51.046;4.498;2022-12-18T07:42:53;22.80;22.10
29539;DHT22;16482;51.046;4.498;2022-12-18T07:45:19;22.80;22.10
29539;DHT22;16482;51.046;4.498;2022-12-18T07:47:45;22.90;22.20
29539;DHT22;16482;51.046;4.498;2022-12-18T07:50:11;22.90;22.70
29539;DHT22;16482;51.046;4.498;2022-12-18T07:52:38;22.90;22.30
29539;DHT22;16482;51.046;4.498;2022-12-18T07:55:05;22.80;22.20
29539;DHT22;16482;51.046;4.498;2022-12-18T07:57:33;22.90;22.30
29539;DHT22;16482;51.046;4.498;2022-12-18T07:59:59;22.90;22.30
29539;DHT22;16482;51.046;4.498;2022-12-18T08:02:32;22.80;22.30
29539;DHT22;16482;51.046;4.498;2022-12-18T08:05:05;22.90;22.30
29539;DHT22;16482;51.046;4.498;2022-12-18T08:07:34;22.90;22.30
29539;DHT22;16482;51.046;4.498;2022-12-18T08:10:03;22.90;22.10
29539;DHT22;16482;51.046;4.498;2022-12-18T08:12:29;22.90;22.20
29539;DHT22;16482;51.046;4.498;2022-12-18T08:14:55;22.90;22.10
29539;DHT22;16482;51.046;4.498;2022-12-18T08:17:21;22.90;22.20
29539;DHT22;16482;51.046;4.498;2022-12-18T08:19:47;22.90;22.00
29539;DHT22;16482;51.046;4.498;2022-12-18T08:22:13;22.90;22.00
29539;DHT22;16482;51.046;4.498;2022-12-18T08:24:39;22.90;21.90
29539;DHT22;16482;51.046;4.498;2022-12-18T08:27:05;22.80;21.90
29539;DHT22;16482;51.046;4.498;2022-12-18T08:29:31;22.90;21.90
29539;DHT22;16482;51.046;4.498;2022-12-18T08:31:58;23.00;21.80
29539;DHT22;16482;51.046;4.498;2022-12-18T08:34:24;22.90;21.90
29539;DHT22;16482;51.046;4.498;2022-12-18T08:36:49;22.90;21.70
29539;DHT22;16482;51.046;4.498;2022-12-18T08:39:15;22.90;21.80
29539;DHT22;16482;51.046;4.498;2022-12-18T08:41:44;22.90;21.70
29539;DHT22;16482;51.046;4.498;2022-12-18T08:44:30;22.90;21.70
29539;DHT22;16482;51.046;4.498;2022-12-18T08:47:08;23.00;21.80
29539;DHT22;16482;51.046;4.498;2022-12-18T08:49:34;22.90;21.70
29539;DHT22;16482;51.046;4.498;2022-12-18T08:52:00;23.00;21.70
29539;DHT22;16482;51.046;4.498;2022-12-18T08:54:28;23.00;21.60
29539;DHT22;16482;51.046;4.498;2022-12-18T08:56:54;23.00;21.70
29539;DHT22;16482;51.046;4.498;2022-12-18T08:59:20;23.00;21.60
29539;DHT22;16482;51.046;4.498;2022-12-18T09:01:47;23.00;21.70
29539;DHT22;16482;51.046;4.498;2022-12-18T09:04:13;23.00;21.60
29539;DHT22;16482;51.046;4.498;2022-12-18T09:06:43;23.00;21.70
29539;DHT22;16482;51.046;4.498;2022-12-18T09:09:13;23.00;21.60
29539;DHT22;16482;51.046;4.498;2022-12-18T09:11:47;22.90;21.70
29539;DHT22;16482;51.046;4.498;2022-12-18T09:14:13;23.00;21.60
29539;DHT22;16482;51.046;4.498;2022-12-18T09:16:39;23.00;21.70
29539;DHT22;16482;51.046;4.498;2022-12-18T09:19:05;23.00;21.80
29539;DHT22;16482;51.046;4.498;2022-12-18T09:21:33;22.90;21.70
29539;DHT22;16482;51.046;4.498;2022-12-18T09:24:00;23.00;21.70
29539;DHT22;16482;51.046;4.498;2022-12-18T09:26:27;23.00;21.80
29539;DHT22;16482;51.046;4.498;2022-12-18T09:28:53;23.00;21.60
29539;DHT22;16482;51.046;4.498;2022-12-18T09:31:22;23.00;21.80
29539;DHT22;16482;51.046;4.498;2022-12-18T09:33:49;23.00;21.70
29539;DHT22;16482;51.046;4.498;2022-12-18T09:36:16;23.00;21.80
29539;DHT22;16482;51.046;4.498;2022-12-18T09:38:43;23.00;22.10
29539;DHT22;16482;51.046;4.498;2022-12-18T09:46:43;23.00;22.30
29539;DHT22;16482;51.046;4.498;2022-12-18T09:49:19;23.00;22.30
29539;DHT22;16482;51.046;4.498;2022-12-18T09:51:55;23.00;22.40
29539;DHT22;16482;51.046;4.498;2022-12-18T09:54:31;23.10;22.60
29539;DHT22;16482;51.046;4.498;2022-12-18T09:56:58;23.10;22.50
29539;DHT22;16482;51.046;4.498;2022-12-18T09:59:29;23.10;22.60
29539;DHT22;16482;51.046;4.498;2022-12-18T10:01:56;23.20;22.80
29539;DHT22;16482;51.046;4.498;2022-12-18T10:04:23;23.20;22.80
29539;DHT22;16482;51.046;4.498;2022-12-18T10:06:58;23.20;22.90
29539;DHT22;16482;51.046;4.498;2022-12-18T10:09:41;23.20;22.90
29539;DHT22;16482;51.046;4.498;2022-12-18T10:12:30;23.20;22.90
29539;DHT22;16482;51.046;4.498;2022-12-18T10:15:01;23.20;22.90
29539;DHT22;16482;51.046;4.498;2022-12-18T10:17:54;23.30;22.90
29539;DHT22;16482;51.046;4.498;2022-12-18T10:20:38;23.30;23.00
29539;DHT22;16482;51.046;4.498;2022-12-18T10:23:35;23.30;22.90
29539;DHT22;16482;51.046;4.498;2022-12-18T10:26:10;23.40;23.00
29539;DHT22;16482;51.046;4.498;2022-12-18T10:28:38;23.40;23.20
29539;DHT22;16482;51.046;4.498;2022-12-18T10:31:19;23.40;23.00
29539;DHT22;16482;51.046;4.498;2022-12-18T10:33:46;23.50;23.10
29539;DHT22;16482;51.046;4.498;2022-12-18T10:36:12;23.50;23.00
29539;DHT22;16482;51.046;4.498;2022-12-18T10:38:39;23.50;23.00
29539;DHT22;16482;51.046;4.498;2022-12-18T10:43:39;23.50;23.10
29539;DHT22;16482;51.046;4.498;2022-12-18T10:48:40;23.50;23.00
29539;DHT22;16482;51.046;4.498;2022-12-18T10:51:26;23.50;22.90
29539;DHT22;16482;51.046;4.498;2022-12-18T10:54:20;23.60;23.10
29539;DHT22;16482;51.046;4.498;2022-12-18T10:56:47;23.60;23.10
29539;DHT22;16482;51.046;4.498;2022-12-18T10:59:16;23.50;23.20
29539;DHT22;16482;51.046;4.498;2022-12-18T11:04:33;23.50;23.30
29539;DHT22;16482;51.046;4.498;2022-12-18T11:07:08;23.50;23.30
29539;DHT22;16482;51.046;4.498;2022-12-18T11:09:37;23.50;23.50
29539;DHT22;16482;51.046;4.498;2022-12-18T11:14:43;23.50;23.60
29539;DHT22;16482;51.046;4.498;2022-12-18T11:17:21;23.50;23.60
29539;DHT22;16482;51.046;4.498;2022-12-18T11:19:56;23.50;23.60
29539;DHT22;16482;51.046;4.498;2022-12-18T11:22:31;23.60;23.60
29539;DHT22;16482;51.046;4.498;2022-12-18T11:25:29;23.60;23.50
29539;DHT22;16482;51.046;4.498;2022-12-18T11:28:01;23.60;23.60
29539;DHT22;16482;51.046;4.498;2022-12-18T11:38:12;23.50;23.50
29539;DHT22;16482;51.046;4.498;2022-12-18T11:40:41;23.50;23.40
29539;DHT22;16482;51.046;4.498;2022-12-18T11:43:15;23.50;23.40
29539;DHT22;16482;51.046;4.498;2022-12-18T11:48:33;23.50;23.40
29539;DHT22;16482;51.046;4.498;2022-12-18T11:51:02;23.50;23.30
29539;DHT22;16482;51.046;4.498;2022-12-18T11:53:30;23.50;23.30
29539;DHT22;16482;51.046;4.498;2022-12-18T12:15:58;23.50;23.20
29539;DHT22;16482;51.046;4.498;2022-12-18T12:21:36;23.50;23.40
29539;DHT22;16482;51.046;4.498;2022-12-18T12:40:36;23.50;23.40
29539;DHT22;16482;51.046;4.498;2022-12-18T12:43:33;23.60;23.50
29539;DHT22;16482;51.046;4.498;2022-12-18T12:46:12;23.50;23.50
29539;DHT22;16482;51.046;4.498;2022-12-18T12:48:51;23.50;23.50
29539;DHT22;16482;51.046;4.498;2022-12-18T12:53:50;23.50;23.60
29539;DHT22;16482;51.046;4.498;2022-12-18T12:56:19;23.60;23.50
29539;DHT22;16482;51.046;4.498;2022-12-18T13:04:47;23.60;23.50
29539;DHT22;16482;51.046;4.498;2022-12-18T13:13:05;23.50;23.60
29539;DHT22;16482;51.046;4.498;2022-12-18T13:15:47;23.60;23.70
29539;DHT22;16482;51.046;4.498;2022-12-18T13:18:24;23.60;23.60
29539;DHT22;16482;51.046;4.498;2022-12-18T13:31:12;23.50;23.80
29539;DHT22;16482;51.046;4.498;2022-12-18T13:33:44;23.60;23.80
29539;DHT22;16482;51.046;4.498;2022-12-18T13:38:42;23.50;23.80
29539;DHT22;16482;51.046;4.498;2022-12-18T13:43:45;23.60;23.80
29539;DHT22;16482;51.046;4.498;2022-12-18T13:46:28;23.50;23.80
29539;DHT22;16482;51.046;4.498;2022-12-18T13:48:58;23.60;23.80
29539;DHT22;16482;51.046;4.498;2022-12-18T13:51:26;23.60;23.70
29539;DHT22;16482;51.046;4.498;2022-12-18T13:54:02;23.60;24.30
29539;DHT22;16482;51.046;4.498;2022-12-18T13:56:33;23.60;23.80
29539;DHT22;16482;51.046;4.498;2022-12-18T13:59:16;23.60;23.80
29539;DHT22;16482;51.046;4.498;2022-12-18T14:01:52;23.60;23.80
29539;DHT22;16482;51.046;4.498;2022-12-18T14:04:23;23.60;23.80
29539;DHT22;16482;51.046;4.498;2022-12-18T14:07:10;23.60;23.80
29539;DHT22;16482;51.046;4.498;2022-12-18T14:09:43;23.60;23.70
29539;DHT22;16482;51.046;4.498;2022-12-18T14:15:35;23.60;23.80
29539;DHT22;16482;51.046;4.498;2022-12-18T14:20:58;23.60;23.90
29539;DHT22;16482;51.046;4.498;2022-12-18T14:23:32;23.60;23.90
29539;DHT22;16482;51.046;4.498;2022-12-18T14:26:00;23.60;23.80
29539;DHT22;16482;51.046;4.498;2022-12-18T14:28:26;23.60;23.90
29539;DHT22;16482;51.046;4.498;2022-12-18T14:30:56;23.60;23.90
29539;DHT22;16482;51.046;4.498;2022-12-18T14:33:30;23.60;23.90
29539;DHT22;16482;51.046;4.498;2022-12-18T14:36:02;23.60;23.90
29539;DHT22;16482;51.046;4.498;2022-12-18T14:38:38;23.60;23.90
29539;DHT22;16482;51.046;4.498;2022-12-18T14:41:15;23.70;24.00
29539;DHT22;16482;51.046;4.498;2022-12-18T14:43:43;23.70;24.00
29539;DHT22;16482;51.046;4.498;2022-12-18T14:49:01;23.70;24.00
29539;DHT22;16482;51.046;4.498;2022-12-18T14:51:38;23.70;23.90
29539;DHT22;16482;51.046;4.498;2022-12-18T14:54:06;23.60;23.90
29539;DHT22;16482;51.046;4.498;2022-12-18T14:56:48;23.70;23.90
29539;DHT22;16482;51.046;4.498;2022-12-18T14:59:23;23.70;24.00
29539;DHT22;16482;51.046;4.498;2022-12-18T15:02:25;23.60;23.90
29539;DHT22;16482;51.046;4.498;2022-12-18T15:05:04;23.70;24.00
29539;DHT22;16482;51.046;4.498;2022-12-18T15:07:51;23.60;24.00
29539;DHT22;16482;51.046;4.498;2022-12-18T15:10:30;23.70;24.10
29539;DHT22;16482;51.046;4.498;2022-12-18T15:20:56;23.60;24.00
29539;DHT22;16482;51.046;4.498;2022-12-18T15:23:38;23.60;24.00
29539;DHT22;16482;51.046;4.498;2022-12-18T15:26:13;23.70;24.00
29539;DHT22;16482;51.046;4.498;2022-12-18T15:28:48;23.60;23.90
29539;DHT22;16482;51.046;4.498;2022-12-18T15:33:45;23.60;24.00
29539;DHT22;16482;51.046;4.498;2022-12-18T15:36:17;23.60;24.00
29539;DHT22;16482;51.046;4.498;2022-12-18T15:38:49;23.60;23.90
29539;DHT22;16482;51.046;4.498;2022-12-18T15:41:20;23.60;23.90
29539;DHT22;16482;51.046;4.498;2022-12-18T15:43:48;23.50;23.80
29539;DHT22;16482;51.046;4.498;2022-12-18T15:46:16;23.50;23.80
29539;DHT22;16482;51.046;4.498;2022-12-18T15:51:33;23.60;23.80
29539;DHT22;16482;51.046;4.498;2022-12-18T15:54:01;23.50;23.80
29539;DHT22;16482;51.046;4.498;2022-12-18T15:56:29;23.50;23.70
29539;DHT22;16482;51.046;4.498;2022-12-18T15:59:18;23.50;23.70
29539;DHT22;16482;51.046;4.498;2022-12-18T16:01:49;23.50;23.70
29539;DHT22;16482;51.046;4.498;2022-12-18T16:04:18;23.50;23.60
29539;DHT22;16482;51.046;4.498;2022-12-18T16:06:50;23.50;23.60
29539;DHT22;16482;51.046;4.498;2022-12-18T16:09:17;23.50;23.60
29539;DHT22;16482;51.046;4.498;2022-12-18T16:11:45;23.50;23.60
29539;DHT22;16482;51.046;4.498;2022-12-18T16:14:30;23.50;23.60
29539;DHT22;16482;51.046;4.498;2022-12-18T16:17:01;23.50;23.60
29539;DHT22;16482;51.046;4.498;2022-12-18T16:19:29;23.50;23.60
29539;DHT22;16482;51.046;4.498;2022-12-18T16:21:57;23.50;23.50
29539;DHT22;16482;51.046;4.498;2022-12-18T16:24:28;23.50;23.60
29539;DHT22;16482;51.046;4.498;2022-12-18T16:26:56;23.50;23.60
29539;DHT22;16482;51.046;4.498;2022-12-18T16:29:23;23.50;23.50
29539;DHT22;16482;51.046;4.498;2022-12-18T16:31:55;23.50;23.50
29539;DHT22;16482;51.046;4.498;2022-12-18T16:34:24;23.50;23.50
29539;DHT22;16482;51.046;4.498;2022-12-18T16:36:54;23.50;23.50
29539;DHT22;16482;51.046;4.498;2022-12-18T16:39:20;23.50;23.50
29539;DHT22;16482;51.046;4.498;2022-12-18T16:41:46;23.50;23.50
29539;DHT22;16482;51.046;4.498;2022-12-18T16:44:13;23.50;23.50
29539;DHT22;16482;51.046;4.498;2022-12-18T16:46:40;23.50;23.50
29539;DHT22;16482;51.046;4.498;2022-12-18T16:49:17;23.50;23.50
29539;DHT22;16482;51.046;4.498;2022-12-18T16:51:46;23.50;23.50
29539;DHT22;16482;51.046;4.498;2022-12-18T16:54:13;23.50;23.50
29539;DHT22;16482;51.046;4.498;2022-12-18T16:56:46;23.50;23.40
29539;DHT22;16482;51.046;4.498;2022-12-18T16:59:22;23.40;23.90
29539;DHT22;16482;51.046;4.498;2022-12-18T17:01:48;23.40;23.40
29539;DHT22;16482;51.046;4.498;2022-12-18T17:04:17;23.40;23.40
29539;DHT22;16482;51.046;4.498;2022-12-18T17:06:46;23.40;23.50
29539;DHT22;16482;51.046;4.498;2022-12-18T17:09:17;23.40;23.30
29539;DHT22;16482;51.046;4.498;2022-12-18T17:11:47;23.40;23.30
29539;DHT22;16482;51.046;4.498;2022-12-18T17:14:18;23.40;23.40
29539;DHT22;16482;51.046;4.498;2022-12-18T17:16:47;23.40;23.30
29539;DHT22;16482;51.046;4.498;2022-12-18T17:19:16;23.40;23.30
29539;DHT22;16482;51.046;4.498;2022-12-18T17:21:43;23.40;23.40
29539;DHT22;16482;51.046;4.498;2022-12-18T17:24:12;23.30;23.30
29539;DHT22;16482;51.046;4.498;2022-12-18T17:26:41;23.30;23.30
29539;DHT22;16482;51.046;4.498;2022-12-18T17:29:09;23.30;23.30
29539;DHT22;16482;51.046;4.498;2022-12-18T17:31:35;23.30;23.20
29539;DHT22;16482;51.046;4.498;2022-12-18T17:34:02;23.30;23.20
29539;DHT22;16482;51.046;4.498;2022-12-18T17:36:28;23.30;23.20
29539;DHT22;16482;51.046;4.498;2022-12-18T17:38:58;23.30;23.20
29539;DHT22;16482;51.046;4.498;2022-12-18T17:41:25;23.30;23.20
29539;DHT22;16482;51.046;4.498;2022-12-18T17:43:59;23.30;23.20
29539;DHT22;16482;51.046;4.498;2022-12-18T17:46:26;23.30;23.20
29539;DHT22;16482;51.046;4.498;2022-12-18T17:48:57;23.30;23.30
29539;DHT22;16482;51.046;4.498;2022-12-18T17:51:24;23.20;23.40
29539;DHT22;16482;51.046;4.498;2022-12-18T17:53:50;23.30;23.30
29539;DHT22;16482;51.046;4.498;2022-12-18T17:56:19;23.30;23.30
29539;DHT22;16482;51.046;4.498;2022-12-18T17:58:45;23.30;23.30
29539;DHT22;16482;51.046;4.498;2022-12-18T18:01:14;23.30;23.30
29539;DHT22;16482;51.046;4.498;2022-12-18T18:03:41;23.30;23.30
29539;DHT22;16482;51.046;4.498;2022-12-18T18:06:07;23.20;23.30
29539;DHT22;16482;51.046;4.498;2022-12-18T18:08:34;23.20;23.30
29539;DHT22;16482;51.046;4.498;2022-12-18T18:11:12;23.20;23.30
29539;DHT22;16482;51.046;4.498;2022-12-18T18:13:58;23.20;23.30
29539;DHT22;16482;51.046;4.498;2022-12-18T18:19:00;23.20;23.40
29539;DHT22;16482;51.046;4.498;2022-12-18T18:21:27;23.20;23.40
29539;DHT22;16482;51.046;4.498;2022-12-18T18:24:01;23.20;23.40